Time;durP1;ratioP1;P1;durP2;ratioP2;P2;SDS_P1;SDS_P2;PMS_P1;PMS_P2;Temp;Humidity;BMP_temperature;BMP_pressure;BME280_temperature;BME280_humidity;BME280_pressure;Samples;Min_cycle;Max_cycle;Signal;HPM_P1;HPM_P2
2023/01/18 00:02:03;;;;;;;;;;;-1.30;99.90;;;;;;4999115;28;20004;-78
2023/01/18 00:04:29;;;;;;;;;;;-1.30;99.90;;;;;;5012329;28;20367;-79
2023/01/18 00:06:57;;;;;;;;;;;-1.30;99.90;;;;;;5012460;28;19921;-80
2023/01/18 00:09:23;;;;;;;;;;;-1.30;99.90;;;;;;4995864;28;19957;-79
2023/01/18 00:11:50;;;;;;;;;;;-1.30;99.90;;;;;;5014018;28;19925;-78
2023/01/18 00:14:17;;;;;;;;;;;-1.30;99.90;;;;;;5017495;28;20078;-78
2023/01/18 00:16:43;;;;;;;;;;;-1.30;99.90;;;;;;4996631;28;19948;-78
2023/01/18 00:19:13;;;;;;;;;;;-1.30;99.90;;;;;;5014081;28;19929;-79
2023/01/18 00:21:40;;;;;;;;;;;-1.40;99.90;;;;;;4997551;28;20112;-79
2023/01/18 00:24:09;;;;;;;;;;;-1.40;99.90;;;;;;5014507;28;19963;-79
2023/01/18 00:26:36;;;;;;;;;;;-1.50;99.90;;;;;;5014388;28;19925;-79
2023/01/18 00:29:03;;;;;;;;;;;-1.50;99.90;;;;;;4997039;28;19931;-79
2023/01/18 00:31:30;;;;;;;;;;;-1.50;99.90;;;;;;5014705;28;19968;-80
2023/01/18 00:33:57;;;;;;;;;;;-1.50;99.90;;;;;;5013369;28;19921;-79
2023/01/18 00:36:26;;;;;;;;;;;-1.50;99.90;;;;;;5014093;28;19932;-80
2023/01/18 00:38:52;;;;;;;;;;;-1.40;99.90;;;;;;4996907;28;19977;-79
2023/01/18 00:41:20;;;;;;;;;;;-1.40;99.90;;;;;;5019997;28;19990;-79
2023/01/18 00:43:45;;;;;;;;;;;-1.40;99.90;;;;;;5010375;28;19921;-80
2023/01/18 00:46:13;;;;;;;;;;;-1.40;99.90;;;;;;5019898;28;19921;-80
2023/01/18 00:48:40;;;;;;;;;;;-1.40;99.90;;;;;;4997976;28;19937;-79
2023/01/18 00:51:08;;;;;;;;;;;-1.40;99.90;;;;;;5015068;28;19921;-80
2023/01/18 00:53:36;;;;;;;;;;;-1.40;99.90;;;;;;5014831;28;19940;-80
2023/01/18 00:56:03;;;;;;;;;;;-1.40;99.90;;;;;;5020250;28;19921;-80
2023/01/18 00:58:30;;;;;;;;;;;-1.40;99.90;;;;;;5017953;28;19948;-81
2023/01/18 01:00:57;;;;;;;;;;;-1.40;99.90;;;;;;5546956;22;19942;-80
2023/01/18 01:03:23;;;;;;;;;;;-1.40;99.90;;;;;;5027325;28;19921;-79
2023/01/18 01:08:36;;;;;;;;;;;-1.50;99.90;;;;;;5055905;28;19975;-79
2023/01/18 01:11:05;;;;;;;;;;;-1.50;99.90;;;;;;5022137;28;19925;-78
2023/01/18 01:27:16;;;;;;;;;;;-1.80;99.90;;;;;;5046579;28;19925;-83
2023/01/18 01:29:44;;;;;;;;;;;-3.00;99.90;;;;;;5049622;28;19932;-83
2023/01/18 01:32:11;;;;;;;;;;;-1.80;99.90;;;;;;5036086;28;19931;-83
2023/01/18 01:34:37;;;;;;;;;;;-1.80;99.90;;;;;;5050382;28;19929;-82
2023/01/18 01:37:05;;;;;;;;;;;-1.90;99.90;;;;;;5063808;28;19946;-82
2023/01/18 01:39:36;;;;;;;;;;;-1.70;99.90;;;;;;5044078;28;19924;-82
2023/01/18 01:42:04;;;;;;;;;;;-1.90;99.90;;;;;;5045664;28;19951;-83
2023/01/18 01:44:48;;;;;;;;;;;-1.90;99.90;;;;;;5040630;28;19927;-83
2023/01/18 01:47:35;;;;;;;;;;;-1.80;99.90;;;;;;5039109;28;20032;-84
2023/01/18 01:50:04;;;;;;;;;;;-1.80;99.90;;;;;;5058689;28;19951;-83
2023/01/18 01:52:36;;;;;;;;;;;-1.80;99.90;;;;;;5041791;28;19955;-83
2023/01/18 01:55:07;;;;;;;;;;;-1.80;99.90;;;;;;5041194;28;19921;-83
2023/01/18 01:57:38;;;;;;;;;;;-1.80;99.90;;;;;;5039006;28;19924;-83
2023/01/18 02:00:08;;;;;;;;;;;-1.80;99.90;;;;;;5039090;28;20027;-84
2023/01/18 02:02:42;;;;;;;;;;;-1.80;99.90;;;;;;5055317;28;20007;-85
2023/01/18 02:05:10;;;;;;;;;;;-1.20;99.90;;;;;;5036721;28;19921;-84
2023/01/18 02:07:37;;;;;;;;;;;-1.80;99.90;;;;;;5041241;28;19929;-86
2023/01/18 02:10:07;;;;;;;;;;;-1.80;99.90;;;;;;5035170;28;19986;-86
2023/01/18 02:12:35;;;;;;;;;;;-1.80;99.90;;;;;;5053751;28;19929;-85
2023/01/18 02:15:05;;;;;;;;;;;-1.80;99.90;;;;;;5036872;28;19924;-87
2023/01/18 02:17:37;;;;;;;;;;;-1.80;99.90;;;;;;5035256;28;19928;-83
2023/01/18 02:20:23;;;;;;;;;;;-1.90;99.90;;;;;;5035209;28;19925;-84
2023/01/18 02:23:03;;;;;;;;;;;-1.90;99.90;;;;;;5051163;28;19936;-83
2023/01/18 02:25:44;;;;;;;;;;;-1.90;99.90;;;;;;5041181;28;19932;-83
2023/01/18 02:28:14;;;;;;;;;;;-1.90;99.90;;;;;;5056651;28;20302;-84
2023/01/18 02:30:43;;;;;;;;;;;-1.90;99.90;;;;;;5046702;28;19924;-83
2023/01/18 02:33:13;;;;;;;;;;;-1.90;99.90;;;;;;5041504;28;19925;-81
2023/01/18 02:35:44;;;;;;;;;;;-2.00;99.90;;;;;;5040627;28;19924;-81
2023/01/18 02:38:13;;;;;;;;;;;-2.00;99.90;;;;;;5042485;28;19920;-81
2023/01/18 02:40:46;;;;;;;;;;;-2.00;99.90;;;;;;5054154;28;19925;-81
2023/01/18 02:48:48;;;;;;;;;;;-2.30;99.90;;;;;;5033805;28;20636;-82
2023/01/18 02:51:15;;;;;;;;;;;-2.30;99.90;;;;;;5042571;28;19952;-82
2023/01/18 02:53:43;;;;;;;;;;;-2.30;99.90;;;;;;5058167;28;19927;-81
2023/01/18 02:56:11;;;;;;;;;;;-2.30;99.90;;;;;;5039418;28;19964;-82
2023/01/18 02:58:42;;;;;;;;;;;-2.40;99.90;;;;;;5046268;28;19924;-82
2023/01/18 03:01:11;;;;;;;;;;;-2.40;99.90;;;;;;5047989;28;20323;-82
2023/01/18 03:03:39;;;;;;;;;;;-2.40;99.90;;;;;;5045753;28;20004;-81
2023/01/18 03:06:08;;;;;;;;;;;-2.40;99.90;;;;;;5044291;28;19996;-82
2023/01/18 03:08:37;;;;;;;;;;;-2.50;99.90;;;;;;5042773;28;19908;-82
2023/01/18 03:11:05;;;;;;;;;;;-2.40;99.90;;;;;;5035251;28;19929;-81
2023/01/18 03:13:53;;;;;;;;;;;-2.40;99.90;;;;;;5070701;28;19925;-81
2023/01/18 03:16:21;;;;;;;;;;;-2.40;99.90;;;;;;5068732;28;19920;-82
2023/01/18 03:19:00;;;;;;;;;;;-2.30;99.90;;;;;;5047720;28;19931;-80
2023/01/18 03:21:33;;;;;;;;;;;-2.30;99.90;;;;;;5062338;28;19951;-81
2023/01/18 03:24:02;;;;;;;;;;;-2.30;99.90;;;;;;5043142;28;19924;-80
2023/01/18 03:26:30;;;;;;;;;;;-2.30;99.90;;;;;;5021080;28;19959;-81
2023/01/18 03:34:33;;;;;;;;;;;-2.20;99.90;;;;;;5057458;28;19975;-79
2023/01/18 03:37:02;;;;;;;;;;;-2.10;99.90;;;;;;5035848;28;19975;-80
2023/01/18 03:39:31;;;;;;;;;;;-2.10;99.90;;;;;;5037917;28;20024;-82
2023/01/18 03:42:00;;;;;;;;;;;-2.10;99.90;;;;;;5038125;28;19948;-81
2023/01/18 03:44:32;;;;;;;;;;;-2.10;99.90;;;;;;5040402;28;19920;-82
2023/01/18 03:47:00;;;;;;;;;;;-2.20;99.90;;;;;;5043873;28;19921;-82
2023/01/18 03:49:27;;;;;;;;;;;-2.20;99.90;;;;;;5041751;28;19920;-82
2023/01/18 03:51:58;;;;;;;;;;;-2.20;99.90;;;;;;5055945;28;19929;-82
2023/01/18 03:54:28;;;;;;;;;;;-2.20;99.90;;;;;;5054719;28;19928;-82
2023/01/18 03:57:00;;;;;;;;;;;-2.20;99.90;;;;;;5056237;28;20352;-82
2023/01/18 03:59:31;;;;;;;;;;;-2.20;99.90;;;;;;5039233;28;20304;-81
2023/01/18 04:01:58;;;;;;;;;;;-2.20;99.90;;;;;;5041588;28;20391;-81
2023/01/18 04:04:26;;;;;;;;;;;-2.20;99.90;;;;;;5041194;28;20319;-81
2023/01/18 04:06:53;;;;;;;;;;;-2.20;99.90;;;;;;5036461;28;20428;-81
2023/01/18 04:09:19;;;;;;;;;;;-2.30;99.90;;;;;;5033622;28;19948;-81
2023/01/18 04:11:46;;;;;;;;;;;-2.30;99.90;;;;;;5042815;28;19962;-82
2023/01/18 04:14:13;;;;;;;;;;;-2.30;99.90;;;;;;5037946;28;19982;-81
2023/01/18 04:16:41;;;;;;;;;;;-2.30;99.90;;;;;;5047331;28;19931;-81
2023/01/18 04:19:09;;;;;;;;;;;-2.30;99.90;;;;;;5034764;28;19928;-82
2023/01/18 04:21:37;;;;;;;;;;;-2.30;99.90;;;;;;5056001;28;19976;-81
2023/01/18 04:24:04;;;;;;;;;;;-2.30;99.90;;;;;;5037004;28;19924;-83
2023/01/18 04:26:33;;;;;;;;;;;-2.30;99.90;;;;;;5038025;28;19939;-82
2023/01/18 04:29:02;;;;;;;;;;;-2.40;99.90;;;;;;5038785;28;19924;-82
2023/01/18 04:31:30;;;;;;;;;;;-2.30;99.90;;;;;;5055957;28;19924;-82
2023/01/18 04:34:03;;;;;;;;;;;-2.30;99.90;;;;;;5038669;28;19921;-82
2023/01/18 04:36:29;;;;;;;;;;;-2.30;99.90;;;;;;5039505;28;19927;-82
2023/01/18 04:38:56;;;;;;;;;;;-2.40;99.90;;;;;;5037281;28;19932;-81
2023/01/18 04:41:23;;;;;;;;;;;-2.40;99.90;;;;;;5043811;28;19921;-81
2023/01/18 04:43:50;;;;;;;;;;;-2.40;99.90;;;;;;5036554;28;19966;-79
2023/01/18 04:46:17;;;;;;;;;;;-2.50;99.90;;;;;;5034568;28;19920;-78
2023/01/18 04:48:44;;;;;;;;;;;-2.50;99.90;;;;;;5043356;28;20014;-83
2023/01/18 04:51:13;;;;;;;;;;;-2.50;99.90;;;;;;5052886;28;20009;-80
2023/01/18 04:53:40;;;;;;;;;;;-2.60;99.90;;;;;;5041104;28;19920;-80
2023/01/18 04:56:08;;;;;;;;;;;-2.60;99.90;;;;;;5055352;28;20303;-81
2023/01/18 04:58:35;;;;;;;;;;;-2.60;99.90;;;;;;5042722;28;19925;-81
2023/01/18 05:01:02;;;;;;;;;;;-2.70;99.90;;;;;;5039409;28;19925;-80
2023/01/18 05:03:29;;;;;;;;;;;-2.70;99.90;;;;;;5040893;28;19986;-82
2023/01/18 05:05:56;;;;;;;;;;;-2.70;99.90;;;;;;5046702;28;20431;-80
2023/01/18 05:08:24;;;;;;;;;;;-2.70;99.90;;;;;;5034009;28;19921;-81
2023/01/18 05:10:51;;;;;;;;;;;-2.70;99.90;;;;;;5040738;28;20011;-80
2023/01/18 05:13:18;;;;;;;;;;;-2.70;99.90;;;;;;5040485;28;19971;-81
2023/01/18 05:15:45;;;;;;;;;;;-2.70;99.90;;;;;;5039479;28;20042;-81
2023/01/18 05:18:12;;;;;;;;;;;-2.60;99.90;;;;;;5055336;28;20281;-81
2023/01/18 05:20:39;;;;;;;;;;;-2.60;99.90;;;;;;5056602;28;19932;-81
2023/01/18 05:23:10;;;;;;;;;;;-2.50;99.90;;;;;;5043673;28;20061;-81
2023/01/18 05:25:39;;;;;;;;;;;-2.50;99.90;;;;;;5039913;28;19967;-81
2023/01/18 05:28:06;;;;;;;;;;;-2.50;99.90;;;;;;5036977;28;19928;-79
2023/01/18 05:30:33;;;;;;;;;;;-2.40;99.90;;;;;;5036541;28;19920;-79
2023/01/18 05:33:01;;;;;;;;;;;-2.40;99.90;;;;;;5038411;28;19935;-80
2023/01/18 05:35:27;;;;;;;;;;;-2.30;99.90;;;;;;5037499;28;20350;-80
2023/01/18 05:37:54;;;;;;;;;;;-2.30;99.90;;;;;;5041972;28;20406;-80
2023/01/18 05:40:22;;;;;;;;;;;-2.30;99.90;;;;;;5038889;28;20399;-79
2023/01/18 05:42:52;;;;;;;;;;;-2.30;99.90;;;;;;5036978;28;19921;-80
2023/01/18 05:45:19;;;;;;;;;;;-2.30;99.90;;;;;;5061113;28;19924;-79
2023/01/18 05:47:46;;;;;;;;;;;-2.20;99.90;;;;;;5038330;28;19947;-81
2023/01/18 05:50:14;;;;;;;;;;;-2.30;99.90;;;;;;5035908;28;19929;-82
2023/01/18 05:52:44;;;;;;;;;;;-2.20;99.90;;;;;;5032042;28;20256;-82
2023/01/18 05:55:12;;;;;;;;;;;-2.20;99.90;;;;;;5057746;28;19920;-80
2023/01/18 05:57:39;;;;;;;;;;;-2.20;99.90;;;;;;5035490;28;19932;-81
2023/01/18 06:00:08;;;;;;;;;;;-2.20;99.90;;;;;;5038977;28;19924;-80
2023/01/18 06:02:38;;;;;;;;;;;-2.20;99.90;;;;;;5055235;28;19967;-82
2023/01/18 06:05:05;;;;;;;;;;;-2.20;99.90;;;;;;5031744;28;19935;-83
2023/01/18 06:07:33;;;;;;;;;;;-2.20;99.90;;;;;;5057577;28;19967;-83
2023/01/18 06:10:01;;;;;;;;;;;-2.30;99.90;;;;;;5035227;28;19950;-85
2023/01/18 06:12:28;;;;;;;;;;;-2.30;99.90;;;;;;5045009;28;19924;-83
2023/01/18 06:14:55;;;;;;;;;;;-2.30;99.90;;;;;;5039201;28;19921;-84
2023/01/18 06:17:23;;;;;;;;;;;-2.30;99.90;;;;;;5037446;28;19965;-84
2023/01/18 06:19:50;;;;;;;;;;;-2.30;99.90;;;;;;5035906;28;19933;-82
2023/01/18 06:22:17;;;;;;;;;;;-2.20;99.90;;;;;;5039402;28;19920;-82
2023/01/18 06:24:44;;;;;;;;;;;-2.20;99.90;;;;;;5035096;28;19925;-83
2023/01/18 06:27:12;;;;;;;;;;;-2.20;99.90;;;;;;5044563;28;19920;-80
2023/01/18 06:29:38;;;;;;;;;;;-2.10;99.90;;;;;;5034667;28;19925;-79
2023/01/18 06:32:05;;;;;;;;;;;-2.20;99.90;;;;;;5034028;28;19963;-79
2023/01/18 06:34:35;;;;;;;;;;;-2.20;99.90;;;;;;5043926;28;19924;-77
2023/01/18 06:37:03;;;;;;;;;;;-2.30;99.90;;;;;;5060358;28;19936;-79
2023/01/18 06:39:30;;;;;;;;;;;-2.40;99.90;;;;;;5047530;28;19920;-78
2023/01/18 06:41:57;;;;;;;;;;;-2.40;99.90;;;;;;5045605;28;19943;-78
2023/01/18 06:44:24;;;;;;;;;;;-2.40;99.90;;;;;;5062448;28;19924;-80
2023/01/18 06:46:53;;;;;;;;;;;-2.40;99.90;;;;;;5076140;28;19908;-84
2023/01/18 06:49:20;;;;;;;;;;;-2.30;99.90;;;;;;5071945;28;19908;-83
2023/01/18 06:51:48;;;;;;;;;;;-2.30;99.90;;;;;;5044675;28;19993;-82
2023/01/18 06:54:15;;;;;;;;;;;-2.10;99.90;;;;;;5049764;28;19921;-87
2023/01/18 06:56:42;;;;;;;;;;;-2.20;99.90;;;;;;5048030;28;20063;-84
2023/01/18 06:59:09;;;;;;;;;;;-2.20;99.90;;;;;;5046819;28;19932;-85
2023/01/18 07:01:39;;;;;;;;;;;-2.30;99.90;;;;;;5047528;28;19924;-84
2023/01/18 07:04:06;;;;;;;;;;;-2.30;99.90;;;;;;5050761;28;19924;-84
2023/01/18 07:06:35;;;;;;;;;;;-2.30;99.90;;;;;;5043334;28;20007;-84
2023/01/18 07:09:10;;;;;;;;;;;-2.30;99.90;;;;;;5043878;28;20404;-82
2023/01/18 07:11:43;;;;;;;;;;;-2.20;99.90;;;;;;5063689;28;20008;-84
2023/01/18 07:14:10;;;;;;;;;;;-2.20;99.90;;;;;;5039896;28;19925;-82
2023/01/18 07:16:37;;;;;;;;;;;-2.20;99.90;;;;;;5044795;28;19955;-83
2023/01/18 07:19:05;;;;;;;;;;;-2.10;99.90;;;;;;5062239;28;20520;-82
2023/01/18 07:21:32;;;;;;;;;;;-2.10;99.90;;;;;;5050018;28;19993;-83
2023/01/18 07:23:59;;;;;;;;;;;-2.10;99.90;;;;;;5045080;28;20020;-82
2023/01/18 07:26:28;;;;;;;;;;;-2.10;99.90;;;;;;5046319;28;19925;-83
2023/01/18 07:28:55;;;;;;;;;;;-2.10;99.90;;;;;;5064707;28;19924;-84
2023/01/18 07:31:23;;;;;;;;;;;-1.20;99.90;;;;;;5047293;28;19921;-83
2023/01/18 07:33:51;;;;;;;;;;;-2.00;99.90;;;;;;5063434;28;19928;-83
2023/01/18 07:36:18;;;;;;;;;;;-2.00;99.90;;;;;;5040834;28;19921;-84
2023/01/18 07:38:46;;;;;;;;;;;-1.90;99.90;;;;;;5037295;28;19920;-84
2023/01/18 07:41:14;;;;;;;;;;;-1.90;99.90;;;;;;5062188;28;20323;-82
2023/01/18 07:43:44;;;;;;;;;;;-1.80;99.90;;;;;;5038702;28;19925;-82
2023/01/18 07:46:15;;;;;;;;;;;-1.80;99.90;;;;;;5051490;28;19974;-82
2023/01/18 07:48:43;;;;;;;;;;;-1.70;99.90;;;;;;5058014;28;19924;-84
2023/01/18 07:51:10;;;;;;;;;;;-1.60;99.90;;;;;;5038574;28;19994;-80
2023/01/18 07:53:38;;;;;;;;;;;-1.60;99.90;;;;;;5042936;28;20567;-79
2023/01/18 07:56:06;;;;;;;;;;;-1.50;99.90;;;;;;5048021;28;19924;-82
2023/01/18 07:58:34;;;;;;;;;;;-1.40;99.90;;;;;;5055583;28;20236;-82
2023/01/18 08:01:07;;;;;;;;;;;-1.30;99.90;;;;;;5043219;28;19920;-83
2023/01/18 08:03:35;;;;;;;;;;;-1.30;99.90;;;;;;5042158;28;19925;-79
2023/01/18 08:06:02;;;;;;;;;;;-1.20;99.90;;;;;;5044138;28;20419;-84
2023/01/18 08:08:30;;;;;;;;;;;-1.10;99.90;;;;;;5047925;28;20450;-86
2023/01/18 08:10:58;;;;;;;;;;;-1.10;99.90;;;;;;5053536;28;19990;-84
2023/01/18 08:13:26;;;;;;;;;;;-1.00;99.90;;;;;;5061871;28;19978;-83
2023/01/18 08:15:54;;;;;;;;;;;-0.90;99.90;;;;;;5047395;28;19921;-83
2023/01/18 08:18:23;;;;;;;;;;;-0.90;99.90;;;;;;5040868;28;19929;-83
2023/01/18 08:20:50;;;;;;;;;;;-0.80;99.90;;;;;;5068001;28;20332;-82
2023/01/18 08:23:17;;;;;;;;;;;-0.70;99.90;;;;;;5049223;28;19909;-83
2023/01/18 08:25:46;;;;;;;;;;;-0.60;99.90;;;;;;5057039;28;19934;-83
2023/01/18 08:28:13;;;;;;;;;;;-0.50;99.90;;;;;;5059975;28;20312;-86
2023/01/18 08:30:41;;;;;;;;;;;-0.50;99.90;;;;;;5045431;28;19909;-85
2023/01/18 08:33:08;;;;;;;;;;;-0.40;99.90;;;;;;5059814;28;19940;-82
2023/01/18 08:35:40;;;;;;;;;;;-0.30;99.90;;;;;;5045346;28;19916;-86
2023/01/18 08:38:08;;;;;;;;;;;-0.20;99.90;;;;;;5049594;28;19925;-84
2023/01/18 08:40:36;;;;;;;;;;;0.00;99.90;;;;;;5056545;28;19938;-84
2023/01/18 08:43:04;;;;;;;;;;;0.10;99.90;;;;;;5051062;28;20000;-84
2023/01/18 08:45:31;;;;;;;;;;;0.50;99.90;;;;;;5057653;28;19924;-83
2023/01/18 08:47:59;;;;;;;;;;;0.30;99.90;;;;;;5049674;28;20028;-82
2023/01/18 08:50:26;;;;;;;;;;;0.40;99.90;;;;;;5065974;28;19932;-83
2023/01/18 08:52:55;;;;;;;;;;;0.40;99.90;;;;;;5062027;28;19921;-82
2023/01/18 08:55:22;;;;;;;;;;;0.50;99.90;;;;;;5047965;28;19951;-81
2023/01/18 08:57:49;;;;;;;;;;;0.50;99.90;;;;;;5038691;28;19928;-80
2023/01/18 09:00:21;;;;;;;;;;;0.60;99.90;;;;;;5063716;28;19931;-79
2023/01/18 09:02:49;;;;;;;;;;;0.70;99.90;;;;;;5040066;28;19924;-80
2023/01/18 09:05:16;;;;;;;;;;;0.70;99.90;;;;;;5043383;28;19921;-80
2023/01/18 09:07:44;;;;;;;;;;;1.50;99.90;;;;;;5036821;28;19921;-79
2023/01/18 09:10:14;;;;;;;;;;;0.70;99.90;;;;;;5038365;28;19924;-80
2023/01/18 09:12:41;;;;;;;;;;;0.80;99.90;;;;;;5063249;28;20418;-79
2023/01/18 09:15:09;;;;;;;;;;;0.90;99.90;;;;;;5035447;28;19959;-80
2023/01/18 09:17:36;;;;;;;;;;;1.10;99.90;;;;;;5033768;28;19945;-80
2023/01/18 09:20:08;;;;;;;;;;;1.10;99.90;;;;;;5032964;28;19920;-81
2023/01/18 09:22:37;;;;;;;;;;;1.20;99.90;;;;;;5036079;28;19924;-81
2023/01/18 09:25:05;;;;;;;;;;;1.20;99.90;;;;;;5030976;28;20008;-79
2023/01/18 09:27:34;;;;;;;;;;;1.30;99.90;;;;;;5037465;28;20742;-80
2023/01/18 09:30:01;;;;;;;;;;;1.40;99.90;;;;;;5038601;28;19925;-80
2023/01/18 09:32:29;;;;;;;;;;;1.50;99.90;;;;;;5033583;28;20318;-81
2023/01/18 09:34:56;;;;;;;;;;;1.60;99.90;;;;;;5040062;28;19920;-80
2023/01/18 09:37:24;;;;;;;;;;;1.60;99.90;;;;;;5059909;28;19924;-81
2023/01/18 09:39:50;;;;;;;;;;;1.70;99.90;;;;;;5045039;28;19921;-79
2023/01/18 09:42:19;;;;;;;;;;;1.60;99.90;;;;;;5058030;28;19921;-79
2023/01/18 09:44:50;;;;;;;;;;;1.70;99.90;;;;;;5071663;28;19967;-80
2023/01/18 09:47:20;;;;;;;;;;;1.70;99.90;;;;;;5049681;28;20384;-80
2023/01/18 09:49:53;;;;;;;;;;;1.70;99.90;;;;;;5051977;28;20070;-79
2023/01/18 09:52:27;;;;;;;;;;;1.80;99.90;;;;;;5063678;28;19955;-83
2023/01/18 09:54:56;;;;;;;;;;;1.90;99.90;;;;;;5047940;28;20350;-81
2023/01/18 09:57:32;;;;;;;;;;;2.00;99.90;;;;;;5035100;28;19932;-82
2023/01/18 10:00:03;;;;;;;;;;;2.00;99.90;;;;;;5041856;28;20403;-80
2023/01/18 10:02:37;;;;;;;;;;;2.10;99.90;;;;;;5055529;28;19983;-79
2023/01/18 10:05:09;;;;;;;;;;;2.20;99.90;;;;;;5055199;28;19921;-79
2023/01/18 10:07:39;;;;;;;;;;;2.30;99.90;;;;;;5036768;28;19924;-79
2023/01/18 10:10:07;;;;;;;;;;;2.30;99.90;;;;;;5037845;28;20046;-81
2023/01/18 10:12:37;;;;;;;;;;;2.30;99.90;;;;;;5061689;28;19932;-80
2023/01/18 10:15:09;;;;;;;;;;;2.40;99.90;;;;;;5048649;28;19924;-79
2023/01/18 10:17:38;;;;;;;;;;;2.40;99.90;;;;;;5026136;28;20452;-79
2023/01/18 10:20:15;;;;;;;;;;;2.50;99.90;;;;;;5027299;28;19974;-80
2023/01/18 10:22:46;;;;;;;;;;;2.50;99.90;;;;;;5055595;28;19931;-79
2023/01/18 10:25:15;;;;;;;;;;;2.50;99.90;;;;;;5039503;28;20634;-82
2023/01/18 10:27:51;;;;;;;;;;;2.50;99.90;;;;;;5032604;28;20090;-81
2023/01/18 10:30:33;;;;;;;;;;;2.60;99.90;;;;;;5030434;28;20000;-80
2023/01/18 10:33:01;;;;;;;;;;;2.80;99.90;;;;;;5038871;28;19928;-80
2023/01/18 10:35:30;;;;;;;;;;;3.00;99.90;;;;;;5057263;28;20024;-82
2023/01/18 10:37:59;;;;;;;;;;;3.00;99.90;;;;;;5035821;28;19974;-81
2023/01/18 10:40:26;;;;;;;;;;;3.10;99.90;;;;;;5035842;28;19925;-80
2023/01/18 10:42:55;;;;;;;;;;;3.20;99.90;;;;;;5034850;28;19936;-79
2023/01/18 10:45:23;;;;;;;;;;;3.30;99.90;;;;;;5031983;28;20447;-83
2023/01/18 10:47:53;;;;;;;;;;;3.40;99.90;;;;;;5057432;28;19921;-84
2023/01/18 10:50:32;;;;;;;;;;;3.50;99.90;;;;;;5042288;28;19925;-81
2023/01/18 10:53:18;;;;;;;;;;;3.60;99.90;;;;;;5048534;28;20366;-80
2023/01/18 10:55:51;;;;;;;;;;;3.80;99.90;;;;;;5045960;28;20002;-83
2023/01/18 10:58:23;;;;;;;;;;;3.80;99.90;;;;;;5045451;28;19932;-83
2023/01/18 11:00:53;;;;;;;;;;;4.00;99.90;;;;;;5046158;28;19925;-82
2023/01/18 11:03:22;;;;;;;;;;;4.10;99.90;;;;;;5032676;28;19925;-82
2023/01/18 11:05:49;;;;;;;;;;;4.20;99.90;;;;;;5063360;28;20005;-81
2023/01/18 11:08:30;;;;;;;;;;;4.40;99.90;;;;;;5036806;28;19955;-82
2023/01/18 11:11:02;;;;;;;21.10;12.83;;;4.50;99.90;;;;;;5040172;28;20192;-82
2023/01/18 11:13:39;;;;;;;24.83;13.60;;;4.70;99.90;;;;;;5040766;28;20262;-82
2023/01/18 11:16:12;;;;;;;17.70;12.13;;;4.90;99.90;;;;;;5049103;28;20292;-81
2023/01/18 11:18:54;;;;;;;;;;;5.00;99.90;;;;;;5063208;28;20087;-82
2023/01/18 11:21:21;;;;;;;;;;;5.10;99.90;;;;;;5050209;28;19984;-82
2023/01/18 11:23:50;;;;;;;;;;;5.20;99.90;;;;;;5057128;28;20293;-82
2023/01/18 11:26:18;;;;;;;;;;;5.20;99.90;;;;;;5035708;28;19929;-82
2023/01/18 11:28:48;;;;;;;;;;;5.20;99.90;;;;;;5038265;28;19966;-82
2023/01/18 11:31:16;;;;;;;;;;;5.20;99.90;;;;;;5039158;28;19925;-81
2023/01/18 11:33:51;;;;;;;;;;;5.20;99.90;;;;;;5039733;28;19929;-82
2023/01/18 11:36:20;;;;;;;;;;;5.20;99.90;;;;;;5051652;28;20339;-81
2023/01/18 11:38:47;;;;;;;;;;;5.20;99.90;;;;;;5035329;28;20415;-81
2023/01/18 11:41:15;;;;;;;;;;;5.30;99.90;;;;;;5043174;28;20019;-82
2023/01/18 11:43:48;;;;;;;;;;;5.30;99.90;;;;;;5059355;28;19924;-82
2023/01/18 11:46:26;;;;;;;;;;;5.40;99.90;;;;;;5046547;28;20033;-81
2023/01/18 11:48:56;;;;;;;;;;;5.50;99.90;;;;;;5040402;28;19920;-82
2023/01/18 11:51:30;;;;;;;;;;;5.50;99.90;;;;;;5041649;28;19925;-81
2023/01/18 11:54:00;;;;;;;;;;;5.60;99.90;;;;;;5045216;28;19928;-81
2023/01/18 11:56:31;;;;;;;;;;;5.70;99.90;;;;;;5037670;28;20326;-82
2023/01/18 11:58:59;;;;;;;;;;;5.80;99.90;;;;;;5046723;28;20341;-81
2023/01/18 12:01:36;;;;;;;;;;;5.90;99.90;;;;;;5063250;28;19990;-81
2023/01/18 12:04:06;;;;;;;;;;;5.90;99.90;;;;;;5044282;28;19925;-82
2023/01/18 12:06:41;;;;;;;;;;;6.00;99.90;;;;;;5056339;28;20567;-82
2023/01/18 12:09:11;;;;;;;;;;;6.10;99.90;;;;;;5036133;28;19924;-82
2023/01/18 12:11:51;;;;;;;;;;;6.20;99.90;;;;;;5037783;28;20427;-83
2023/01/18 12:17:16;;;;;;;;;;;6.50;99.90;;;;;;5114666;27;19927;-76
2023/01/18 12:19:58;;;;;;;;;;;6.60;99.90;;;;;;5115490;28;19928;-77
2023/01/18 12:22:36;;;;;;;;;;;6.70;99.90;;;;;;5111748;28;19928;-76
2023/01/18 12:25:08;;;;;;;;;;;6.80;99.90;;;;;;5109110;28;19934;-74
2023/01/18 12:27:40;;;;;;;;;;;6.80;99.90;;;;;;5107015;28;19928;-75
2023/01/18 12:30:22;;;;;;;;;;;6.90;99.90;;;;;;5103162;28;19934;-76
2023/01/18 12:33:09;;;;;;;;;;;7.10;99.90;;;;;;5110622;28;20004;-75
2023/01/18 12:35:44;;;;;;;;;;;7.20;99.90;;;;;;5097785;28;19985;-75
2023/01/18 12:38:16;;;;;;;;;;;7.20;99.90;;;;;;5106272;28;19924;-75
2023/01/18 12:40:47;;;;;;;;;;;7.20;99.90;;;;;;5111119;28;19931;-75
2023/01/18 12:43:21;;;;;;;;;;;7.20;99.90;;;;;;5105388;28;20396;-75
2023/01/18 12:45:50;;;;;;;;;;;7.30;99.90;;;;;;5104957;28;19935;-75
2023/01/18 12:48:18;;;;;;;;;;;7.40;99.90;;;;;;5106601;28;19928;-76
2023/01/18 12:50:49;;;;;;;;;;;7.30;99.90;;;;;;5106410;28;20278;-75
2023/01/18 12:53:18;;;;;;;;;;;7.30;99.90;;;;;;5103991;28;20031;-76
2023/01/18 12:55:47;;;;;;;;;;;7.40;99.90;;;;;;5105995;28;19928;-76
2023/01/18 12:58:16;;;;;;;;;;;6.90;99.90;;;;;;5114027;28;19928;-76
2023/01/18 13:00:45;;;;;;;;;;;7.50;99.90;;;;;;5121121;28;19928;-76
2023/01/18 13:03:14;;;;;;;;;;;7.50;99.90;;;;;;5116457;28;19928;-76
2023/01/18 13:05:49;;;;;;;;;;;7.50;99.90;;;;;;5101314;28;20022;-76
2023/01/18 13:08:22;;;;;;;;;;;7.50;99.90;;;;;;5105541;28;19946;-75
2023/01/18 13:10:49;;;;;;;;;;;7.50;99.90;;;;;;5112681;28;20368;-76
2023/01/18 13:13:18;;;;;;;;;;;7.40;99.90;;;;;;5119048;28;19977;-76
2023/01/18 13:15:48;;;;;;;;;;;7.30;99.90;;;;;;5108920;28;19947;-76
2023/01/18 13:18:17;;;;;;;;;;;7.30;99.90;;;;;;5108662;28;20383;-76
2023/01/18 13:20:58;;;;;;;;;;;7.20;99.90;;;;;;5110042;28;19935;-76
2023/01/18 13:23:30;;;;;;;;;;;7.20;99.90;;;;;;5101242;28;19981;-76
2023/01/18 13:26:03;;;;;;;;;;;7.20;99.90;;;;;;5106947;28;19931;-76
2023/01/18 13:28:30;;;;;;;;;;;7.20;99.90;;;;;;5087134;28;19996;-76
2023/01/18 13:30:59;;;;;;;;;;;7.20;99.90;;;;;;5088321;28;19932;-76
2023/01/18 13:33:26;;;;;;;;;;;7.10;99.90;;;;;;5091508;28;19928;-76
2023/01/18 13:35:54;;;;;;;;;;;7.10;99.90;;;;;;5089372;28;19927;-76
2023/01/18 13:38:23;;;;;;;;;;;7.00;99.90;;;;;;5091770;28;19935;-76
2023/01/18 13:40:54;;;;;;;;;;;6.90;99.90;;;;;;5090932;28;20300;-76
2023/01/18 13:43:29;;;;;;;;;;;6.80;99.90;;;;;;5090128;28;19932;-76
2023/01/18 13:46:01;;;;;;;;;;;6.80;99.90;;;;;;5087234;28;19950;-76
2023/01/18 13:48:40;;;;;;;;;;;6.90;99.90;;;;;;5091271;28;19928;-76
2023/01/18 13:51:08;;;;;;;;;;;7.00;99.90;;;;;;5087402;28;19928;-76
2023/01/18 13:53:48;;;;;;;;;;;7.20;99.90;;;;;;5088023;28;19939;-76
2023/01/18 13:56:24;;;;;;;;;;;7.50;99.90;;;;;;5082140;28;20327;-76
2023/01/18 13:58:55;;;;;;;;;;;7.50;99.90;;;;;;5088719;28;19928;-76
2023/01/18 14:01:23;;;;;;;;;;;7.60;99.90;;;;;;5083921;28;19928;-75
2023/01/18 14:03:51;;;;;;;;;;;7.50;99.90;;;;;;5090398;28;19963;-76
2023/01/18 14:06:22;;;;;;;;;;;7.40;99.90;;;;;;5083665;28;19928;-75
2023/01/18 14:08:51;;;;;;;;;;;7.30;99.90;;;;;;5092368;28;20040;-75
2023/01/18 14:11:22;;;;;;;;;;;7.40;99.90;;;;;;5095454;28;19928;-75
2023/01/18 14:14:04;;;;;;;;;;;7.30;99.90;;;;;;5092631;28;19935;-76
2023/01/18 14:16:32;;;;;;;;;;;7.30;99.90;;;;;;5075150;28;19932;-75
2023/01/18 14:19:02;;;;;;;;;;;7.30;99.90;;;;;;5067911;28;19986;-75
2023/01/18 14:21:32;;;;;;;;;;;7.20;99.90;;;;;;5062504;28;20393;-75
2023/01/18 14:24:08;;;;;;;;;;;7.40;99.90;;;;;;5062834;28;19929;-75
2023/01/18 14:26:37;;;;;;;;;;;7.00;99.90;;;;;;5062504;28;20063;-75
2023/01/18 14:29:06;;;;;;;;;;;6.80;99.90;;;;;;5063726;28;19982;-75
2023/01/18 14:31:34;;;;;;;;;;;6.80;99.90;;;;;;5067049;28;19928;-76
2023/01/18 14:34:16;;;;;;;;;;;6.70;99.90;;;;;;5073658;28;19928;-76
2023/01/18 14:36:42;;;;;;;;;;;6.60;99.90;;;;;;5067888;28;20003;-76
2023/01/18 14:39:12;;;;;;;;;;;6.50;99.90;;;;;;5064032;28;20377;-76
2023/01/18 14:41:42;;;;;;;;;;;6.30;99.90;;;;;;5068560;28;19925;-76
2023/01/18 14:44:15;;;;;;;;;;;6.20;99.90;;;;;;5069373;28;20412;-76
2023/01/18 14:46:42;;;;;;;;;;;6.10;99.90;;;;;;5063961;28;20530;-76
2023/01/18 14:49:14;;;;;;;;;;;6.00;99.90;;;;;;5070374;28;19932;-76
2023/01/18 14:51:45;;;;;;;;;;;5.90;99.90;;;;;;5067309;28;19928;-75
2023/01/18 14:54:15;;;;;;;;;;;5.90;99.90;;;;;;5068826;28;20353;-76
2023/01/18 14:56:42;;;;;;;;;;;5.80;99.90;;;;;;5057219;28;19933;-74
2023/01/18 14:59:18;;;;;;;;;;;5.70;99.90;;;;;;5068925;28;19932;-75
2023/01/18 15:01:51;;;;;;;;;;;5.60;99.90;;;;;;5066212;28;19955;-74
2023/01/18 15:04:18;;;;;;;;;;;5.60;99.90;;;;;;5072542;28;19929;-74
2023/01/18 15:06:47;;;;;;;;;;;5.50;99.90;;;;;;5070025;28;19931;-74